Time;durP1;ratioP1;P1;durP2;ratioP2;P2;SDS_P1;SDS_P2;PMS_P1;PMS_P2;Temp;Humidity;BMP_temperature;BMP_pressure;BME280_temperature;BME280_humidity;BME280_pressure;Samples;Min_cycle;Max_cycle;Signal;HPM_P1;HPM_P2
2021/08/13 00:00:47;;;;;;;2.83;1.55;;;;;;;19.04;54.56;100781.62;1697935;83;21029;-75
2021/08/13 00:03:14;;;;;;;2.40;1.20;;;;;;;18.99;54.74;100786.39;1692441;83;21155;-72
2021/08/13 00:05:40;;;;;;;2.40;1.40;;;;;;;18.98;54.72;100783.38;1699529;83;21007;-76
2021/08/13 00:08:09;;;;;;;4.17;1.50;;;;;;;18.94;55.00;100787.61;1703096;82;21076;-72
2021/08/13 00:10:37;;;;;;;1.80;1.70;;;;;;;18.93;55.10;100785.98;1711108;83;21120;-73
2021/08/13 00:13:03;;;;;;;3.90;1.95;;;;;;;18.93;55.06;100790.03;1700746;83;21042;-74
2021/08/13 00:15:29;;;;;;;4.65;1.98;;;;;;;18.91;55.09;100785.39;1695751;83;21062;-73
2021/08/13 00:17:56;;;;;;;1.77;1.50;;;;;;;18.85;55.32;100788.50;1700615;83;21168;-72
2021/08/13 00:20:23;;;;;;;;;;;;;;;18.81;55.49;100788.64;1687817;83;21147;-74
2021/08/13 00:22:52;;;;;;;3.50;1.60;;;;;;;18.75;55.83;100788.20;1725646;82;20158;-72
2021/08/13 00:25:19;;;;;;;1.85;1.75;;;;;;;18.68;55.94;100788.31;1740754;81;21039;-73
2021/08/13 00:27:46;;;;;;;1.55;1.45;;;;;;;18.68;55.88;100783.42;1745938;81;21122;-73
2021/08/13 00:30:14;;;;;;;1.42;1.40;;;;;;;18.66;56.16;100786.34;1745796;81;21022;-72
2021/08/13 00:32:41;;;;;;;2.33;2.15;;;;;;;18.66;56.11;100790.39;1738912;81;21320;-74
2021/08/13 00:35:09;;;;;;;4.15;2.02;;;;;;;18.65;56.13;100793.34;1741201;81;21042;-70
2021/08/13 00:37:37;;;;;;;1.80;1.67;;;;;;;18.62;56.30;100793.80;1745566;81;21014;-70
2021/08/13 00:40:08;;;;;;;3.15;1.57;;;;;;;18.63;56.15;100793.57;1736412;81;21015;-78
2021/08/13 00:42:37;;;;;;;2.37;2.17;;;;;;;18.62;56.07;100795.15;1699829;82;21060;-73
2021/08/13 00:45:05;;;;;;;2.80;2.12;;;;;;;18.55;56.28;100793.06;1723248;81;21045;-71
2021/08/13 00:47:34;;;;;;;1.95;1.62;;;;;;;18.46;56.43;100792.05;1729156;81;21033;-72
2021/08/13 00:50:09;;;;;;;2.12;1.60;;;;;;;18.40;56.80;100794.83;1739768;81;21493;-72
2021/08/13 00:52:45;;;;;;;3.55;1.75;;;;;;;18.42;56.75;100798.97;1738850;81;20959;-70
2021/08/13 00:55:13;;;;;;;2.12;1.52;;;;;;;17.47;56.74;100649.34;1741567;81;21022;-74
2021/08/13 00:57:42;;;;;;;3.90;2.02;;;;;;;18.47;56.62;100801.78;1740589;81;21006;-69
2021/08/13 01:00:13;;;;;;;3.02;2.15;;;;;;;18.51;56.65;100808.08;1733399;81;20967;-70
2021/08/13 01:02:43;;;;;;;1.70;1.60;;;;;;;18.51;56.62;100804.03;1738246;82;21062;-70
2021/08/13 01:05:15;;;;;;;3.65;2.20;;;;;;;18.51;56.69;100805.38;1741706;82;21061;-72
2021/08/13 01:07:42;;;;;;;5.65;2.17;;;;;;;18.47;56.76;100807.18;1723249;82;21532;-74
2021/08/13 01:10:11;;;;;;;1.67;1.52;;;;;;;17.20;56.77;100617.88;1742314;82;21164;-74
2021/08/13 01:12:56;;;;;;;2.58;1.55;;;;;;;18.41;56.96;100811.34;1720115;82;20978;-72
2021/08/13 01:15:28;;;;;;;1.75;1.65;;;;;;;18.40;56.84;100806.98;1742084;82;21525;-73
2021/08/13 01:18:12;;;;;;;2.00;1.77;;;;;;;18.26;57.19;100811.20;1739151;82;21085;-73
2021/08/13 01:21:17;;;;;;;2.00;1.82;;;;;;;18.18;57.45;100809.36;1729743;82;21019;-69
2021/08/13 01:23:55;;;;;;;2.00;1.67;;;;;;;18.07;57.90;100807.71;1737171;82;21065;-73
2021/08/13 01:26:34;;;;;;;3.30;1.80;;;;;;;18.03;58.26;100813.27;1734362;82;21481;-72
2021/08/13 01:29:25;;;;;;;3.35;2.42;;;;;;;17.98;58.26;100809.06;1730059;82;21100;-72
2021/08/13 01:32:22;;;;;;;2.20;2.00;;;;;;;17.97;58.61;100815.53;1740226;82;21050;-73
2021/08/13 01:34:54;;;;;;;1.82;1.47;;;;;;;18.05;58.18;100813.05;1692175;84;21612;-71
2021/08/13 01:37:23;;;;;;;1.90;1.72;;;;;;;18.02;58.21;100812.95;1702684;83;21033;-73
2021/08/13 01:39:55;;;;;;;2.75;2.17;;;;;;;17.97;58.35;100816.87;1727774;82;21026;-70
2021/08/13 01:42:22;;;;;;;3.92;2.10;;;;;;;17.93;58.43;100813.48;1734075;82;21038;-68
2021/08/13 01:44:49;;;;;;;2.67;1.50;;;;;;;17.90;58.52;100822.33;1734090;82;21034;-72
2021/08/13 01:47:18;;;;;;;2.83;1.60;;;;;;;17.88;58.57;100826.31;1728223;81;21126;-72
2021/08/13 01:49:50;;;;;;;1.85;1.75;;;;;;;17.86;58.67;100826.53;1698281;83;21032;-70
2021/08/13 01:52:21;;;;;;;4.70;1.92;;;;;;;17.93;58.62;100822.93;1724208;82;21122;-72
2021/08/13 01:54:50;;;;;;;3.80;1.98;;;;;;;18.01;58.36;100824.81;1724245;82;21009;-72
2021/08/13 01:57:18;;;;;;;2.50;2.40;;;;;;;18.04;58.15;100826.22;1701461;83;21656;-72
2021/08/13 01:59:45;;;;;;;1.35;1.25;;;;;;;18.01;58.32;100834.25;1729372;82;21050;-73
2021/08/13 02:02:13;;;;;;;1.57;1.47;;;;;;;17.95;58.65;100836.51;1696732;82;21482;-70
2021/08/13 02:04:43;;;;;;;5.40;2.67;;;;;;;17.95;58.64;100840.55;1731453;82;21071;-69
2021/08/13 02:07:14;;;;;;;4.47;2.60;;;;;;;17.96;58.58;100843.53;1734132;82;20983;-71
2021/08/13 02:09:40;;;;;;;3.33;2.90;;;;;;;17.93;58.86;100848.02;1698492;84;21536;-68
2021/08/13 02:12:09;;;;;;;3.12;2.02;;;;;;;17.88;58.91;100851.94;1726871;80;20977;-71
2021/08/13 02:14:39;;;;;;;4.83;2.60;;;;;;;17.86;59.20;100849.98;1745580;80;21041;-69
2021/08/13 02:17:19;;;;;;;3.42;2.40;;;;;;;17.84;59.12;100858.30;1740323;81;21109;-68
2021/08/13 02:20:06;;;;;;;3.72;2.30;;;;;;;17.85;59.16;100861.80;1752202;80;21658;-69
2021/08/13 02:22:34;;;;;;;2.98;2.77;;;;;;;17.85;59.43;100869.89;1752949;80;20959;-70
2021/08/13 02:25:04;;;;;;;4.90;2.85;;;;;;;17.83;59.51;100874.66;1738434;81;21066;-69
2021/08/13 02:27:33;;;;;;;4.03;2.37;;;;;;;17.82;59.51;100874.34;1753891;80;21025;-71
2021/08/13 02:29:59;;;;;;;4.30;2.40;;;;;;;17.84;59.55;100874.97;1755032;80;21045;-73
2021/08/13 02:32:30;;;;;;;3.83;2.67;;;;;;;17.83;59.47;100876.83;1739214;80;21010;-72
2021/08/13 02:35:03;;;;;;;2.22;2.02;;;;;;;17.75;59.75;100881.70;1736043;81;21485;-74
2021/08/13 02:37:39;;;;;;;3.52;2.15;;;;;;;17.74;60.04;100880.86;1735170;80;21002;-73
2021/08/13 02:40:14;;;;;;;2.45;2.00;;;;;;;17.81;59.79;100888.89;1747516;80;20981;-75
2021/08/13 02:42:51;;;;;;;2.17;1.82;;;;;;;17.79;59.79;100885.59;1737360;80;20975;-71
2021/08/13 02:45:23;;;;;;;7.72;2.00;;;;;;;17.81;59.85;100892.94;1745622;81;21064;-74
2021/08/13 02:48:00;;;;;;;2.92;2.27;;;;;;;17.75;59.96;100895.19;1739596;80;20968;-76
2021/08/13 02:50:27;;;;;;;3.40;2.60;;;;;;;17.66;60.32;100898.14;1757213;80;21021;-77
2021/08/13 02:53:03;;;;;;;3.60;1.92;;;;;;;17.65;60.59;100893.81;1749296;80;21033;-71
2021/08/13 02:55:58;;;;;;;2.55;2.35;;;;;;;17.85;60.02;100891.47;1746429;80;20935;-73
2021/08/13 02:58:35;;;;;;;3.27;2.50;;;;;;;17.84;59.97;100892.50;1737757;81;22186;-72
2021/08/13 03:01:03;;;;;;;2.40;2.20;;;;;;;17.75;60.18;100897.87;1756919;80;21148;-75
2021/08/13 03:03:31;;;;;;;2.33;2.08;;;;;;;17.67;60.37;100903.03;1757517;80;21014;-70
2021/08/13 03:06:00;;;;;;;2.70;1.65;;;;;;;17.55;60.59;100904.78;1754512;80;21182;-71
2021/08/13 03:08:30;;;;;;;3.05;1.80;;;;;;;17.51;61.10;100905.75;1759580;81;21512;-70
2021/08/13 03:10:57;;;;;;;1.82;1.72;;;;;;;17.66;60.63;100908.11;1749559;80;21079;-71
2021/08/13 03:13:26;;;;;;;2.95;2.00;;;;;;;17.89;60.06;100904.80;1763987;80;21018;-73
2021/08/13 03:15:53;;;;;;;3.00;2.05;;;;;;;18.20;59.12;100903.04;1712284;83;21079;-75
2021/08/13 03:18:21;;;;;;;2.12;2.02;;;;;;;18.46;58.66;100899.20;1677282;83;21444;-74
2021/08/13 03:20:49;;;;;;;3.70;1.72;;;;;;;18.86;57.51;100902.75;1719382;82;21135;-74
2021/08/13 03:23:17;;;;;;;2.35;2.15;;;;;;;19.16;56.54;100909.47;1716315;82;21093;-73
2021/08/13 03:25:44;;;;;;;2.40;2.17;;;;;;;19.49;55.79;100908.64;1712002;80;21025;-74
2021/08/13 03:28:14;;;;;;;2.25;2.05;;;;;;;19.93;54.45;100921.30;1710502;82;21114;-74
2021/08/13 03:30:43;;;;;;;4.35;1.95;;;;;;;20.22;53.56;100907.34;1738152;81;20980;-75
2021/08/13 03:33:15;;;;;;;3.75;1.47;;;;;;;20.39;53.02;100904.17;1758832;81;20993;-73
2021/08/13 03:35:43;;;;;;;2.70;2.47;;;;;;;20.52;52.44;100915.27;1737546;80;21560;-73
2021/08/13 03:38:11;;;;;;;3.05;1.90;;;;;;;20.73;52.33;100911.09;1753544;81;20990;-75
2021/08/13 03:40:38;;;;;;;2.35;2.02;;;;;;;21.07;50.89;100919.30;1712448;82;21060;-74
2021/08/13 03:43:04;;;;;;;3.33;1.98;;;;;;;21.28;50.58;100914.23;1731170;81;21022;-74
2021/08/13 03:45:33;;;;;;;2.98;2.02;;;;;;;21.44;49.45;100914.81;1739393;81;21166;-73
2021/08/13 03:48:00;;;;;;;1.80;1.60;;;;;;;21.54;49.22;100919.02;1723600;81;21114;-73
2021/08/13 03:50:28;;;;;;;1.32;1.22;;;;;;;21.70;48.77;100912.47;1742002;80;21140;-73
2021/08/13 03:52:54;;;;;;;2.17;1.57;;;;;;;21.83;48.55;100918.09;1725214;81;21018;-73
2021/08/13 03:55:22;;;;;;;2.37;1.80;;;;;;;22.10;47.76;100929.08;1722004;80;21088;-75
2021/08/13 03:57:49;;;;;;;3.22;1.22;;;;;;;22.37;47.08;100924.29;1748772;81;21045;-76
2021/08/13 04:00:16;;;;;;;1.30;1.20;;;;;;;22.67;46.88;100926.00;1761515;80;20971;-73
2021/08/13 04:02:46;;;;;;;2.70;1.40;;;;;;;23.04;45.60;100923.97;1744606;82;21537;-72
2021/08/13 04:05:14;;;;;;;2.10;1.87;;;;;;;23.34;44.86;100922.61;1740639;81;20987;-72
2021/08/13 04:07:45;;;;;;;1.87;1.70;;;;;;;23.44;43.95;100919.96;1735922;82;21026;-78
2021/08/13 04:10:11;;;;;;;1.98;1.85;;;;;;;23.44;44.20;100928.13;1751154;81;20941;-70
2021/08/13 04:12:38;;;;;;;3.22;1.42;;;;;;;23.51;44.25;100928.73;1762621;80;21088;-80
2021/08/13 04:15:22;;;;;;;1.72;1.32;;;;;;;23.69;43.78;100928.03;1761472;79;21051;-81
2021/08/13 04:17:51;;;;;;;5.47;1.85;;;;;;;23.86;43.20;100939.59;1752085;81;20957;-75
2021/08/13 04:20:20;;;;;;;3.02;1.72;;;;;;;23.98;42.97;100938.58;1750821;81;21128;-71
2021/08/13 04:22:49;;;;;;;1.75;1.60;;;;;;;24.07;42.66;100939.72;1728120;80;21068;-76
2021/08/13 04:25:15;;;;;;;3.33;1.17;;;;;;;24.14;42.43;100943.59;1736445;82;21094;-77
2021/08/13 04:27:42;;;;;;;1.60;1.12;;;;;;;24.20;42.38;100943.88;1734542;82;21188;-73
2021/08/13 04:30:10;;;;;;;1.37;1.37;;;;;;;24.21;42.29;100946.34;1728315;81;21482;-75
2021/08/13 04:32:38;;;;;;;1.22;1.22;;;;;;;24.19;42.60;100952.60;1731555;81;20995;-74
2021/08/13 04:35:07;;;;;;;3.10;1.10;;;;;;;24.26;42.28;100953.19;1730395;81;21073;-76
2021/08/13 04:37:33;;;;;;;1.52;1.40;;;;;;;24.37;41.95;100950.50;1750110;81;21017;-76
2021/08/13 04:40:00;;;;;;;1.65;1.45;;;;;;;24.45;41.87;100946.73;1728588;82;21096;-76
2021/08/13 04:42:28;;;;;;;3.92;1.98;;;;;;;24.51;41.67;100954.39;1730771;82;21061;-72
2021/08/13 04:44:55;;;;;;;8.38;1.90;;;;;;;24.65;41.82;100946.00;1733835;80;22155;-70
2021/08/13 04:47:23;;;;;;;1.37;1.25;;;;;;;24.87;41.12;100950.44;1733795;81;21009;-75
2021/08/13 04:49:49;;;;;;;1.12;1.02;;;;;;;24.96;41.11;100961.09;1727161;81;21048;-83
2021/08/13 04:52:18;;;;;;;5.10;1.20;;;;;;;24.99;40.62;100955.08;1730950;82;21081;-74
2021/08/13 04:54:48;;;;;;;1.47;1.20;;;;;;;25.01;40.70;100959.72;1731252;82;21021;-75
2021/08/13 04:57:15;;;;;;;1.72;1.62;;;;;;;25.13;40.43;100961.38;1742790;80;21049;-76
2021/08/13 04:59:43;;;;;;;1.85;1.62;;;;;;;25.28;40.39;100963.34;1728811;81;20992;-73
2021/08/13 05:02:11;;;;;;;2.30;1.57;;;;;;;25.39;39.91;100957.63;1742274;80;20962;-81
2021/08/13 05:04:37;;;;;;;1.52;1.37;;;;;;;25.47;40.35;100960.36;1778351;80;21046;-81
2021/08/13 05:07:03;;;;;;;2.85;1.87;;;;;;;25.69;39.59;100958.69;1778296;78;21010;-79
2021/08/13 05:09:32;;;;;;;1.95;1.85;;;;;;;25.72;39.37;100958.70;1777213;78;21037;-77
2021/08/13 05:12:00;;;;;;;2.72;1.52;;;;;;;25.50;39.67;100959.80;1764179;79;21599;-80
2021/08/13 05:14:27;;;;;;;1.65;1.12;;;;;;;25.36;40.09;100957.36;1729630;82;21067;-73
2021/08/13 05:16:54;;;;;;;1.37;1.32;;;;;;;25.18;40.24;100964.92;1692722;83;21057;-76
2021/08/13 05:19:21;;;;;;;3.20;1.45;;;;;;;24.96;40.79;100965.19;1712052;83;21678;-78
2021/08/13 05:21:49;;;;;;;2.08;1.70;;;;;;;24.82;41.08;100959.95;1707799;83;21070;-74
2021/08/13 05:24:17;;;;;;;1.27;1.17;;;;;;;24.86;41.31;100957.80;1717723;81;21016;-75
2021/08/13 05:26:43;;;;;;;2.37;1.77;;;;;;;25.03;40.77;100965.75;1740100;82;20982;-63
2021/08/13 05:29:10;;;;;;;3.92;1.32;;;;;;;25.18;40.64;100960.84;1737994;82;21553;-63
2021/08/13 05:31:38;;;;;;;1.95;1.65;;;;;;;25.26;40.46;100963.63;1726855;82;21554;-62
2021/08/13 05:34:06;;;;;;;3.02;1.55;;;;;;;25.23;40.30;100966.89;1721971;82;21093;-63
2021/08/13 05:36:32;;;;;;;2.30;1.32;;;;;;;25.19;40.59;100969.86;1738394;81;21009;-63
2021/08/13 05:38:58;;;;;;;2.08;1.77;;;;;;;25.04;41.04;100970.66;1730117;81;21507;-62
2021/08/13 05:41:24;;;;;;;1.82;1.72;;;;;;;24.96;41.24;100969.80;1721519;81;21089;-63
2021/08/13 05:43:52;;;;;;;1.80;1.30;;;;;;;25.00;41.20;100968.19;1724577;82;21615;-64
2021/08/13 05:46:20;;;;;;;2.67;1.77;;;;;;;25.01;41.34;100963.00;1724880;82;21056;-64
2021/08/13 05:48:47;;;;;;;1.70;1.60;;;;;;;25.00;41.26;100970.38;1728148;82;21572;-63
2021/08/13 05:51:14;;;;;;;1.62;1.30;;;;;;;24.87;42.02;100970.89;1727935;81;20968;-63
2021/08/13 05:53:41;;;;;;;1.85;1.67;;;;;;;25.08;41.95;100979.11;1721666;82;21028;-61
2021/08/13 05:56:07;;;;;;;3.02;1.60;;;;;;;25.37;41.23;100980.28;1750868;80;20975;-61
2021/08/13 05:58:34;;;;;;;1.57;1.12;;;;;;;25.56;40.62;100981.08;1722376;82;21081;-61
2021/08/13 06:01:02;;;;;;;3.30;1.10;;;;;;;25.35;40.93;100990.63;1731400;82;21026;-63
2021/08/13 06:03:29;;;;;;;1.52;1.15;;;;;;;24.98;41.82;100991.64;1725894;81;21017;-63
2021/08/13 06:05:57;;;;;;;3.52;1.65;;;;;;;24.59;42.73;100993.41;1737294;81;21462;-63
2021/08/13 06:08:23;;;;;;;1.60;0.78;;;;;;;24.42;43.09;100994.13;1732126;81;20962;-63
2021/08/13 06:10:49;;;;;;;1.80;1.70;;;;;;;24.43;43.79;100992.50;1729703;81;21012;-63
2021/08/13 06:13:19;;;;;;;2.05;0.98;;;;;;;24.67;43.25;100989.34;1713015;82;21631;-63
2021/08/13 06:15:46;;;;;;;1.95;1.65;;;;;;;24.77;43.43;100986.67;1723520;82;21021;-63
2021/08/13 06:18:13;;;;;;;2.15;0.65;;;;;;;24.76;43.36;100985.58;1729762;81;20979;-63
2021/08/13 06:20:41;;;;;;;1.02;0.93;;;;;;;24.68;43.22;100991.81;1724945;82;21088;-63
2021/08/13 06:23:18;;;;;;;1.47;1.07;;;;;;;24.66;43.27;100987.17;1718636;81;20958;-63
2021/08/13 06:25:46;;;;;;;4.47;1.25;;;;;;;24.65;43.87;100986.88;1721438;81;20939;-63
2021/08/13 06:28:13;;;;;;;1.25;1.10;;;;;;;24.82;43.08;100998.12;1724838;82;21009;-63
2021/08/13 06:30:41;;;;;;;4.20;1.20;;;;;;;24.86;42.96;100992.41;1719460;81;21068;-63
2021/08/13 06:33:08;;;;;;;1.07;1.07;;;;;;;24.62;43.49;100961.55;1714703;82;21567;-64
2021/08/13 06:35:35;;;;;;;3.30;0.85;;;;;;;24.72;43.38;100988.56;1717656;83;21006;-63
2021/08/13 06:38:03;;;;;;;2.55;0.95;;;;;;;24.67;43.60;100986.07;1723855;83;21679;-63
2021/08/13 06:40:32;;;;;;;1.80;1.70;;;;;;;24.75;43.57;100986.13;1729094;83;21078;-64
2021/08/13 06:44:53;;;;;;;1.12;1.12;;;;;;;25.01;43.44;100984.27;1778233;77;23990;-60
2021/08/13 06:47:21;;;;;;;1.10;0.98;;;;;;;25.19;43.27;100988.41;1703639;82;21159;-60
2021/08/13 06:49:48;;;;;;;3.80;0.68;;;;;;;25.44;42.56;100998.55;1722054;82;21590;-60
2021/08/13 06:52:15;;;;;;;3.30;1.45;;;;;;;25.44;42.16;100990.91;1715308;82;21020;-59
2021/08/13 06:54:42;;;;;;;3.30;1.60;;;;;;;25.35;42.21;100987.08;1713567;82;21553;-59
2021/08/13 06:57:09;;;;;;;1.10;1.00;;;;;;;25.25;42.61;100993.35;1698433;82;21003;-59
2021/08/13 06:59:35;;;;;;;7.50;1.20;;;;;;;25.23;43.07;100984.62;1705760;82;21041;-59
2021/08/13 07:02:04;;;;;;;2.33;1.15;;;;;;;25.42;41.80;100980.81;1690065;83;21542;-59
2021/08/13 07:04:30;;;;;;;1.55;0.80;;;;;;;25.50;41.55;100984.91;1670378;83;21532;-59
2021/08/13 07:06:57;;;;;;;2.02;1.22;;;;;;;25.48;41.71;100992.55;1680523;83;21065;-61
2021/08/13 07:09:24;;;;;;;1.17;1.07;;;;;;;25.22;42.46;100989.76;1677818;83;21527;-59
2021/08/13 07:11:52;;;;;;;1.95;1.70;;;;;;;25.13;42.71;100988.65;1716735;82;21051;-59
2021/08/13 07:14:19;;;;;;;1.77;1.10;;;;;;;25.02;42.89;100991.38;1748498;80;21498;-59
2021/08/13 07:16:47;;;;;;;2.98;0.90;;;;;;;24.91;43.15;100991.06;1748699;80;21059;-59
2021/08/13 07:19:14;;;;;;;4.47;0.55;;;;;;;24.90;42.40;100990.78;1753281;80;21042;-59
2021/08/13 07:21:42;;;;;;;0.93;0.62;;;;;;;24.91;41.97;100982.89;1753451;80;21029;-59
2021/08/13 07:24:10;;;;;;;5.25;1.52;;;;;;;24.84;42.07;100989.13;1748275;80;21041;-59
2021/08/13 07:26:37;;;;;;;1.15;0.42;;;;;;;24.70;42.01;100984.73;1753759;80;21029;-61
2021/08/13 07:29:05;;;;;;;1.37;0.57;;;;;;;24.49;42.92;100990.07;1754985;80;21055;-60
2021/08/13 07:31:32;;;;;;;0.45;0.28;;;;;;;24.28;42.83;100985.62;1754269;80;21103;-60
2021/08/13 07:34:01;;;;;;;1.02;0.33;;;;;;;24.18;42.76;100996.44;1752186;80;21012;-60
2021/08/13 07:36:27;;;;;;;3.12;0.55;;;;;;;24.15;42.31;100996.95;1759679;80;21104;-60
2021/08/13 07:38:55;;;;;;;3.55;1.05;;;;;;;24.08;41.91;100999.92;1760200;80;20985;-60
2021/08/13 07:41:24;;;;;;;0.98;0.45;;;;;;;23.94;42.04;100994.64;1756329;80;21536;-59
2021/08/13 07:43:52;;;;;;;6.25;0.30;;;;;;;23.88;42.19;101004.16;1747137;80;20990;-60
2021/08/13 07:46:18;;;;;;;2.67;0.40;;;;;;;23.76;41.49;100995.31;1736644;81;21074;-59
2021/08/13 07:48:46;;;;;;;4.42;0.62;;;;;;;23.54;42.09;100995.95;1745957;81;20990;-59
2021/08/13 07:51:12;;;;;;;3.58;0.65;;;;;;;23.43;42.50;100988.22;1734763;81;21017;-59
2021/08/13 07:53:39;;;;;;;4.10;0.62;;;;;;;23.45;42.69;100988.78;1745457;81;20993;-59
2021/08/13 07:56:07;;;;;;;2.27;0.60;;;;;;;23.52;42.25;100988.84;1735801;81;21505;-59
2021/08/13 07:58:33;;;;;;;1.45;0.60;;;;;;;23.57;42.49;100988.64;1741652;81;21025;-59
2021/08/13 08:01:00;;;;;;;0.62;0.57;;;;;;;23.55;42.16;100982.63;1732877;80;21035;-60
2021/08/13 08:03:26;;;;;;;1.32;0.50;;;;;;;23.41;42.63;100983.03;1714197;83;20991;-59
2021/08/13 08:05:53;;;;;;;3.02;0.57;;;;;;;23.43;43.20;100983.63;1705956;82;21097;-62
2021/08/13 08:08:20;;;;;;;2.15;0.50;;;;;;;23.51;43.06;100985.86;1713979;82;21081;-59
2021/08/13 08:10:47;;;;;;;1.98;0.80;;;;;;;23.46;43.51;100974.92;1711006;82;21160;-59
2021/08/13 08:13:16;;;;;;;1.87;0.78;;;;;;;23.49;43.73;100979.86;1692410;82;21017;-59
2021/08/13 08:15:45;;;;;;;4.37;1.17;;;;;;;23.56;43.75;100974.19;1701367;82;21572;-59
2021/08/13 08:18:11;;;;;;;1.05;0.82;;;;;;;23.66;43.77;100978.92;1713506;82;21092;-59
2021/08/13 08:20:40;;;;;;;3.70;0.45;;;;;;;23.72;43.81;100977.87;1706518;82;20994;-59
2021/08/13 08:23:07;;;;;;;2.08;0.62;;;;;;;23.82;43.72;100983.41;1726388;81;21054;-59
2021/08/13 08:25:33;;;;;;;0.65;0.65;;;;;;;23.87;43.13;100979.91;1737442;81;21005;-59
2021/08/13 08:28:00;;;;;;;1.22;0.65;;;;;;;23.87;42.61;100978.00;1736333;81;21196;-59
2021/08/13 08:30:27;;;;;;;4.55;0.50;;;;;;;23.88;42.28;100978.30;1744509;81;21026;-59
2021/08/13 08:32:53;;;;;;;0.75;0.42;;;;;;;23.90;42.23;100980.22;1730337;81;21132;-59
2021/08/13 08:35:20;;;;;;;1.80;0.82;;;;;;;23.99;42.39;100985.16;1739042;81;21058;-59
2021/08/13 08:37:56;;;;;;;0.85;0.40;;;;;;;24.01;41.83;100983.80;1740208;81;21014;-59
2021/08/13 08:40:32;;;;;;;;;;;;;;;23.97;42.14;100982.69;1739316;81;21071;-59
2021/08/13 08:43:05;;;;;;;0.93;0.85;;;;;;;23.94;42.75;100992.77;1737808;81;20138;-59
2021/08/13 08:45:36;;;;;;;2.52;1.12;;;;;;;23.74;42.65;100998.84;1726933;81;21057;-59
2021/08/13 08:48:07;;;;;;;5.35;0.80;;;;;;;23.50;43.01;100986.92;1735295;81;21017;-59
2021/08/13 08:50:36;;;;;;;0.65;0.50;;;;;;;23.39;43.89;100982.48;1731360;81;21555;-59
2021/08/13 08:53:08;;;;;;;1.55;0.82;;;;;;;23.45;44.07;100988.27;1734550;81;21518;-59
2021/08/13 08:55:36;;;;;;;1.12;1.02;;;;;;;23.58;43.79;100982.09;1738645;81;21073;-59
2021/08/13 08:58:04;;;;;;;0.55;0.53;;;;;;;23.76;43.42;100983.61;1740085;82;21018;-59
2021/08/13 09:00:30;;;;;;;0.90;0.70;;;;;;;23.89;43.71;100985.36;1740911;81;22039;-59
2021/08/13 09:02:56;;;;;;;1.22;0.40;;;;;;;23.96;43.44;100982.43;1741496;81;21045;-59
2021/08/13 09:05:23;;;;;;;1.12;0.47;;;;;;;24.06;42.97;100992.56;1719410;82;21891;-59
2021/08/13 09:07:49;;;;;;;1.40;0.45;;;;;;;24.10;42.55;100984.14;1744707;81;20963;-59
2021/08/13 09:10:15;;;;;;;0.98;0.90;;;;;;;24.07;42.05;100975.97;1745373;81;21521;-59
2021/08/13 09:12:42;;;;;;;0.93;0.40;;;;;;;24.04;42.61;100984.65;1742623;81;20935;-59
2021/08/13 09:15:34;;;;;;;1.02;0.47;;;;;;;24.05;42.58;100986.83;1742447;81;20999;-59
2021/08/13 09:18:21;;;;;;;1.35;0.80;;;;;;;24.04;42.84;100981.93;1734537;81;21026;-60
2021/08/13 09:20:55;;;;;;;2.98;1.60;;;;;;;24.06;43.17;100981.67;1743651;81;21077;-59
2021/08/13 09:23:40;;;;;;;3.10;0.90;;;;;;;24.06;43.22;100987.12;1736767;80;21070;-59
2021/08/13 09:26:23;;;;;;;5.22;0.68;;;;;;;24.12;43.05;100983.33;1739741;81;21006;-59
2021/08/13 09:29:11;;;;;;;2.90;0.57;;;;;;;24.13;42.95;100983.63;1739616;81;21026;-58
2021/08/13 09:31:58;;;;;;;1.20;1.10;;;;;;;24.14;42.80;100980.35;1740818;81;21624;-59
2021/08/13 09:34:29;;;;;;;1.60;1.37;;;;;;;24.15;42.79;100978.73;1739827;81;21081;-59
2021/08/13 09:36:56;;;;;;;0.62;0.62;;;;;;;24.22;42.56;100984.77;1731790;81;20994;-58
2021/08/13 09:39:33;;;;;;;1.57;0.60;;;;;;;24.25;41.56;100976.05;1745477;81;21059;-59
2021/08/13 09:42:08;;;;;;;0.60;0.60;;;;;;;24.28;41.47;100972.00;1730889;81;21018;-58
2021/08/13 09:44:40;;;;;;;4.20;0.70;;;;;;;24.36;41.25;100976.12;1741626;80;20998;-59
2021/08/13 09:47:12;;;;;;;2.72;1.55;;;;;;;24.39;41.05;100979.14;1745091;80;21006;-59
2021/08/13 09:49:54;;;;;;;1.87;0.90;;;;;;;24.38;41.18;100978.03;1740620;80;21021;-59
2021/08/13 09:52:21;;;;;;;1.42;0.55;;;;;;;24.42;40.74;100977.78;1745387;80;21480;-60
2021/08/13 09:54:53;;;;;;;1.10;0.95;;;;;;;24.45;40.73;100982.70;1745226;80;21499;-60
2021/08/13 09:57:20;;;;;;;0.93;0.60;;;;;;;24.45;40.95;100977.26;1745198;80;20981;-60
2021/08/13 10:00:03;;;;;;;1.90;0.72;;;;;;;24.49;40.85;100978.36;1737627;80;21020;-59
2021/08/13 10:02:35;;;;;;;1.22;0.70;;;;;;;24.58;40.80;100968.63;1744124;80;21113;-59
2021/08/13 10:05:23;;;;;;;2.27;1.05;;;;;;;24.72;40.37;100981.20;1752886;80;21507;-59
2021/08/13 10:07:59;;;;;;;0.68;0.30;;;;;;;24.80;39.18;100990.77;1738072;80;21014;-59
2021/08/13 10:10:42;;;;;;;0.50;0.50;;;;;;;24.76;39.16;100968.66;1746621;80;20989;-59
2021/08/13 10:13:12;;;;;;;2.15;0.72;;;;;;;24.75;39.78;100975.74;1743998;80;21460;-60
2021/08/13 10:15:47;;;;;;;1.50;0.70;;;;;;;24.76;39.24;100979.57;1739179;80;21499;-60
2021/08/13 10:18:20;;;;;;;0.45;0.35;;;;;;;24.83;39.77;100971.96;1749097;80;21077;-59
2021/08/13 10:20:51;;;;;;;1.07;0.60;;;;;;;24.95;39.26;100979.89;1755685;80;21563;-60
2021/08/13 10:23:21;;;;;;;1.77;0.82;;;;;;;25.02;38.40;100980.46;1758048;80;21515;-59
2021/08/13 10:25:50;;;;;;;2.05;0.78;;;;;;;25.02;38.59;100972.83;1736324;80;21013;-60
2021/08/13 10:28:21;;;;;;;0.98;0.53;;;;;;;25.02;38.04;100976.37;1750956;80;21057;-59
2021/08/13 10:30:51;;;;;;;3.45;0.78;;;;;;;24.99;37.49;100971.44;1759766;80;20993;-58
2021/08/13 10:33:19;;;;;;;2.22;0.70;;;;;;;24.93;37.75;100972.53;1732550;81;21029;-60
2021/08/13 10:35:54;;;;;;;0.88;0.55;;;;;;;24.91;38.27;100970.62;1736261;80;21580;-59
2021/08/13 10:38:21;;;;;;;0.90;0.75;;;;;;;24.99;37.96;100973.36;1739159;80;20962;-59
2021/08/13 10:40:48;;;;;;;0.60;0.60;;;;;;;25.00;37.78;100970.38;1747101;80;21723;-59
2021/08/13 10:43:21;;;;;;;1.05;0.75;;;;;;;24.91;38.31;100970.62;1751480;80;21221;-59
2021/08/13 10:45:52;;;;;;;0.82;0.82;;;;;;;24.92;38.48;100970.06;1725536;80;21057;-59
2021/08/13 10:48:28;;;;;;;0.65;0.40;;;;;;;24.90;37.79;100966.23;1716741;82;21053;-59
2021/08/13 10:51:01;;;;;;;1.95;0.80;;;;;;;24.84;38.04;100965.41;1720743;81;21531;-59
2021/08/13 10:53:31;;;;;;;0.82;0.75;;;;;;;24.55;38.08;100910.55;1728543;81;21542;-59
2021/08/13 10:56:02;;;;;;;0.50;0.50;;;;;;;24.86;38.30;100966.51;1698414;83;21157;-59
2021/08/13 10:58:41;;;;;;;0.70;0.40;;;;;;;24.87;38.67;100954.53;1726874;82;20986;-59
2021/08/13 11:01:21;;;;;;;1.75;0.60;;;;;;;24.92;38.32;100969.55;1716387;81;21085;-60
2021/08/13 11:04:04;;;;;;;2.62;0.82;;;;;;;24.93;37.95;100958.08;1708281;81;20958;-59
2021/08/13 11:06:42;;;;;;;0.80;0.50;;;;;;;24.93;37.63;100968.99;1704226;81;21053;-60
2021/08/13 11:09:23;;;;;;;3.50;0.50;;;;;;;24.84;37.49;100965.96;1718638;82;21525;-59
2021/08/13 11:11:57;;;;;;;4.90;0.68;;;;;;;24.77;37.81;100955.84;1729174;82;21484;-59
2021/08/13 11:14:32;;;;;;;1.40;0.57;;;;;;;24.73;37.63;100965.10;1716670;82;21005;-59
2021/08/13 11:16:59;;;;;;;0.70;0.70;;;;;;;24.68;37.90;100963.19;1716169;82;20996;-58
2021/08/13 11:19:28;;;;;;;1.50;0.80;;;;;;;24.71;38.04;100962.37;1708717;82;21057;-59
2021/08/13 11:22:02;;;;;;;1.02;0.82;;;;;;;24.80;38.17;100963.50;1716050;81;21049;-59
2021/08/13 11:24:52;;;;;;;2.50;0.72;;;;;;;24.95;37.03;100962.17;1693662;82;21414;-59
2021/08/13 11:27:20;;;;;;;3.40;0.53;;;;;;;25.03;36.61;100961.66;1714835;82;21559;-59
2021/08/13 11:29:47;;;;;;;0.95;0.70;;;;;;;25.06;37.07;100960.29;1721810;83;21415;-59
2021/08/13 11:32:28;;;;;;;1.45;0.57;;;;;;;25.15;37.34;100962.76;1720487;81;20963;-60
2021/08/13 11:35:06;;;;;;;2.70;0.88;;;;;;;25.24;36.77;100964.42;1713678;81;20968;-60
2021/08/13 11:37:44;;;;;;;0.80;0.80;;;;;;;25.25;36.44;100963.34;1708117;81;21485;-59
2021/08/13 11:40:19;;;;;;;0.82;0.35;;;;;;;25.21;36.87;100963.59;1713697;82;21053;-59
2021/08/13 11:42:58;;;;;;;0.78;0.62;;;;;;;25.20;36.86;100960.05;1726894;81;20988;-59